createdAt,value
2022-11-28T00:01:34.778Z,3.05
2022-11-28T00:06:29.438Z,4.28
2022-11-28T00:08:59.866Z,10.20
2022-11-28T00:11:27.812Z,10.20
2022-11-28T00:13:55.660Z,9.27
2022-11-28T00:16:24.244Z,8.38
2022-11-28T00:18:53.183Z,7.90
2022-11-28T00:21:21.078Z,8.10
2022-11-28T00:23:50.408Z,8.52
2022-11-28T00:26:29.715Z,9.27
2022-11-28T00:28:58.332Z,5.90
2022-11-28T00:31:31.474Z,6.13
2022-11-28T00:33:59.886Z,6.55
2022-11-28T00:36:27.236Z,7.80
2022-11-28T00:38:54.514Z,12.20
2022-11-28T00:41:29.017Z,9.30
2022-11-28T00:43:57.626Z,13.38
2022-11-28T00:46:25.520Z,16.58
2022-11-28T00:48:53.415Z,13.77
2022-11-28T00:51:24.043Z,10.82
2022-11-28T00:53:55.173Z,8.18
2022-11-28T00:56:26.414Z,7.32
2022-11-28T00:59:00.556Z,9.38
2022-11-28T01:01:37.628Z,10.00
2022-11-28T01:04:09.165Z,9.30
2022-11-28T01:06:40.234Z,7.68
2022-11-28T01:09:11.658Z,4.80
2022-11-28T01:11:41.151Z,3.17
2022-11-28T01:14:09.554Z,4.40
2022-11-28T01:16:36.952Z,3.42
2022-11-28T01:19:05.288Z,3.20
2022-11-28T01:21:33.139Z,5.15
2022-11-28T01:24:00.760Z,3.75
2022-11-28T01:26:30.251Z,2.85
2022-11-28T01:28:59.342Z,4.00
2022-11-28T01:31:29.908Z,2.72
2022-11-28T01:33:58.099Z,2.95
2022-11-28T01:36:26.203Z,3.47
2022-11-28T01:38:55.220Z,2.63
2022-11-28T01:41:26.109Z,3.38
2022-11-28T01:44:07.324Z,3.00
2022-11-28T01:46:36.713Z,2.65
2022-11-28T01:49:14.769Z,2.15
2022-11-28T01:51:47.935Z,2.20
2022-11-28T01:54:18.109Z,2.08
2022-11-28T01:56:56.686Z,1.85
2022-11-28T01:59:27.881Z,2.70
2022-11-28T02:01:55.326Z,2.53
2022-11-28T02:04:26.291Z,1.80
2022-11-28T02:06:54.308Z,1.83
2022-11-28T02:09:21.760Z,2.20
2022-11-28T02:12:10.248Z,1.92
2022-11-28T02:14:50.465Z,2.67
2022-11-28T02:17:42.665Z,1.98
2022-11-28T02:20:25.302Z,2.25
2022-11-28T02:23:02.070Z,2.13
2022-11-28T02:26:03.483Z,1.75
2022-11-28T02:28:36.864Z,1.83
2022-11-28T02:34:00.238Z,2.05
2022-11-28T02:36:39.763Z,1.77
2022-11-28T02:39:29.285Z,1.92
2022-11-28T02:42:23.475Z,1.95
2022-11-28T02:44:50.858Z,1.30
2022-11-28T02:47:28.096Z,1.13
2022-11-28T02:50:05.596Z,1.63
2022-11-28T02:52:50.224Z,1.35
2022-11-28T02:55:18.521Z,1.50
2022-11-28T02:57:51.974Z,1.30
2022-11-28T03:00:31.396Z,1.95
2022-11-28T03:03:24.786Z,1.40
2022-11-28T03:06:02.532Z,2.10
2022-11-28T03:08:45.184Z,1.42
2022-11-28T03:11:49.118Z,1.73
2022-11-28T03:14:25.167Z,1.35
2022-11-28T03:17:17.443Z,1.33
2022-11-28T03:20:08.907Z,1.48
2022-11-28T03:22:55.241Z,1.25
2022-11-28T03:25:44.235Z,1.30
2022-11-28T03:28:31.401Z,1.10
2022-11-28T03:31:10.782Z,1.67
2022-11-28T03:33:41.376Z,1.02
2022-11-28T03:36:22.294Z,1.65
2022-11-28T03:38:55.002Z,1.10
2022-11-28T03:41:30.175Z,1.05
2022-11-28T03:43:59.733Z,1.38
2022-11-28T03:46:34.545Z,1.55
2022-11-28T03:49:04.440Z,3.58
2022-11-28T03:51:33.955Z,3.70
2022-11-28T03:54:21.419Z,3.33
2022-11-28T03:57:13.426Z,3.60
2022-11-28T03:59:43.414Z,3.17
2022-11-28T04:02:25.767Z,3.47
2022-11-28T04:04:56.134Z,2.50
2022-11-28T04:07:29.356Z,3.38
2022-11-28T04:12:51.369Z,2.35
2022-11-28T04:15:31.056Z,2.90
2022-11-28T04:18:17.983Z,2.45
2022-11-28T04:21:07.644Z,3.40
2022-11-28T04:23:38.218Z,3.80
2022-11-28T04:26:14.907Z,4.25
2022-11-28T04:28:43.367Z,2.78
2022-11-28T04:31:10.971Z,3.08
2022-11-28T04:33:44.473Z,2.72
2022-11-28T04:36:13.253Z,2.70
2022-11-28T04:38:42.912Z,3.40
2022-11-28T04:41:18.913Z,3.38
2022-11-28T04:43:53.039Z,2.50
2022-11-28T04:46:38.026Z,2.63
2022-11-28T04:49:05.546Z,2.55
2022-11-28T04:51:58.966Z,3.17
2022-11-28T04:54:49.243Z,2.55
2022-11-28T04:57:27.532Z,2.58
2022-11-28T04:59:57.982Z,2.72
2022-11-28T05:02:31.601Z,2.15
2022-11-28T05:05:02.159Z,2.17
2022-11-28T05:07:29.464Z,2.10
2022-11-28T05:09:58.701Z,2.47
2022-11-28T05:12:26.231Z,2.00
2022-11-28T05:14:53.639Z,2.00
2022-11-28T05:17:21.075Z,2.40
2022-11-28T05:19:48.111Z,2.92
2022-11-28T05:22:15.856Z,1.85
2022-11-28T05:24:43.454Z,2.42
2022-11-28T05:27:11.764Z,2.58
2022-11-28T05:29:46.887Z,2.03
2022-11-28T05:32:18.190Z,2.05
2022-11-28T05:34:47.766Z,2.05
2022-11-28T05:37:18.564Z,1.60
2022-11-28T05:39:50.256Z,1.55
2022-11-28T05:42:18.620Z,1.80
2022-11-28T05:44:46.124Z,2.42
2022-11-28T05:47:13.344Z,1.70
2022-11-28T05:49:40.739Z,2.30
2022-11-28T05:52:09.049Z,1.98
2022-11-28T05:54:36.170Z,3.35
2022-11-28T05:57:03.534Z,4.43
2022-11-28T05:59:30.901Z,4.82
2022-11-28T06:01:58.352Z,6.00
2022-11-28T06:04:25.794Z,4.50
2022-11-28T06:06:53.475Z,5.13
2022-11-28T06:09:24.610Z,4.80
2022-11-28T06:11:53.748Z,4.90
2022-11-28T06:14:20.995Z,5.60
2022-11-28T06:16:48.736Z,7.20
2022-11-28T06:19:16.429Z,7.25
2022-11-28T06:21:43.880Z,5.00
2022-11-28T06:24:11.902Z,3.92
2022-11-28T06:26:39.186Z,2.45
2022-11-28T06:29:06.673Z,1.95
2022-11-28T06:31:34.475Z,3.17
2022-11-28T06:34:01.868Z,2.28
2022-11-28T06:36:31.459Z,5.53
2022-11-28T06:38:58.723Z,11.38
2022-11-28T06:41:25.922Z,18.20
2022-11-28T06:43:53.446Z,28.80
2022-11-28T06:46:22.345Z,18.80
2022-11-28T06:48:51.202Z,16.35
2022-11-28T06:51:19.233Z,12.95
2022-11-28T06:53:46.907Z,9.35
2022-11-28T06:56:17.661Z,6.72
2022-11-28T06:58:46.467Z,8.82
2022-11-28T07:01:20.089Z,10.70
2022-11-28T07:03:49.108Z,8.10
2022-11-28T07:06:18.819Z,5.85
2022-11-28T07:08:46.888Z,6.03
2022-11-28T07:11:17.354Z,4.35
2022-11-28T07:13:48.371Z,3.15
2022-11-28T07:16:30.241Z,2.63
2022-11-28T07:18:59.580Z,2.92
2022-11-28T07:21:28.157Z,4.53
2022-11-28T07:23:55.482Z,5.50
2022-11-28T07:26:23.153Z,5.55
2022-11-28T07:28:51.930Z,4.70
2022-11-28T07:31:22.124Z,4.15
2022-11-28T07:33:50.897Z,2.50
2022-11-28T07:36:21.267Z,2.15
2022-11-28T07:38:54.723Z,1.65
2022-11-28T07:43:57.226Z,1.15
2022-11-28T07:46:26.228Z,1.95
2022-11-28T07:48:53.733Z,1.50
2022-11-28T07:51:24.305Z,1.52
2022-11-28T07:53:53.466Z,4.95
2022-11-28T07:56:25.265Z,5.32
2022-11-28T07:58:53.482Z,4.90
2022-11-28T08:01:24.682Z,4.82
2022-11-28T08:03:53.364Z,4.45
2022-11-28T08:06:22.638Z,3.40
2022-11-28T08:08:50.684Z,3.22
2022-11-28T08:11:20.947Z,3.88
2022-11-28T08:13:49.427Z,5.13
2022-11-28T08:16:20.256Z,11.45
2022-11-28T08:18:49.487Z,13.10
2022-11-28T08:21:20.285Z,9.75
2022-11-28T08:23:47.759Z,9.23
2022-11-28T08:26:17.505Z,13.63
2022-11-28T08:28:45.388Z,11.60
2022-11-28T08:31:24.492Z,11.30
2022-11-28T08:33:52.955Z,11.70
2022-11-28T08:36:21.050Z,17.20
2022-11-28T08:39:03.532Z,19.73
2022-11-28T08:41:37.247Z,18.45
2022-11-28T08:44:04.614Z,13.75
2022-11-28T08:46:31.922Z,12.98
2022-11-28T08:49:04.214Z,11.23
2022-11-28T08:51:32.249Z,6.55
2022-11-28T08:54:00.364Z,10.60
2022-11-28T08:56:28.665Z,7.20
2022-11-28T08:58:56.778Z,6.45
2022-11-28T09:01:26.425Z,6.72
2022-11-28T09:03:55.289Z,7.00
2022-11-28T09:06:24.503Z,6.75
2022-11-28T09:08:52.882Z,6.82
2022-11-28T09:11:22.680Z,6.55
2022-11-28T09:13:50.969Z,7.03
2022-11-28T09:16:18.398Z,5.80
2022-11-28T09:18:45.649Z,5.20
2022-11-28T09:21:15.250Z,4.97
2022-11-28T09:23:44.730Z,8.80
2022-11-28T09:26:14.646Z,6.47
2022-11-28T09:28:42.561Z,7.72
2022-11-28T09:31:11.035Z,14.10
2022-11-28T09:33:39.015Z,12.05
2022-11-28T09:36:11.679Z,11.77
2022-11-28T09:38:40.113Z,16.17
2022-11-28T09:41:28.921Z,12.10
2022-11-28T09:44:18.531Z,20.25
2022-11-28T09:46:48.674Z,25.00
2022-11-28T09:49:27.317Z,16.58
2022-11-28T09:52:05.293Z,7.78
2022-11-28T09:54:51.346Z,6.30
2022-11-28T09:57:39.479Z,5.93
2022-11-28T10:00:17.182Z,16.27
2022-11-28T10:02:51.598Z,11.43
2022-11-28T10:05:43.415Z,8.88
2022-11-28T10:08:37.296Z,9.05
2022-11-28T10:11:07.183Z,7.93
2022-11-28T10:14:10.466Z,7.55
2022-11-28T10:16:55.816Z,6.10
2022-11-28T10:22:29.685Z,7.03
2022-11-28T10:25:01.124Z,5.32
2022-11-28T10:27:35.914Z,8.77
2022-11-28T10:30:11.713Z,7.43
2022-11-28T10:32:42.946Z,9.10
2022-11-28T10:35:28.969Z,11.85
2022-11-28T10:37:57.494Z,6.78
2022-11-28T10:40:42.271Z,7.68
2022-11-28T10:43:32.685Z,10.88
2022-11-28T10:46:24.557Z,6.38
2022-11-28T10:49:07.958Z,5.53
2022-11-28T10:51:44.466Z,4.28
2022-11-28T10:54:36.856Z,6.95
2022-11-28T10:57:17.853Z,9.15
2022-11-28T11:00:01.662Z,8.85
2022-11-28T11:02:52.699Z,6.22
2022-11-28T11:05:24.675Z,8.73
2022-11-28T11:08:02.787Z,3.83
2022-11-28T11:10:49.588Z,3.35
2022-11-28T11:13:21.683Z,5.13
2022-11-28T11:16:03.351Z,4.13
2022-11-28T11:18:35.391Z,6.80
2022-11-28T11:21:09.108Z,5.10
2022-11-28T11:23:38.431Z,2.72
2022-11-28T11:26:10.606Z,4.70
2022-11-28T11:28:47.549Z,3.10
2022-11-28T11:31:44.915Z,4.28
2022-11-28T11:34:18.869Z,2.97
2022-11-28T11:36:46.891Z,2.17
2022-11-28T11:39:13.984Z,2.28
2022-11-28T11:41:42.339Z,2.28
2022-11-28T11:44:15.969Z,2.80
2022-11-28T11:47:02.088Z,3.00
2022-11-28T11:49:38.484Z,3.05
2022-11-28T11:52:26.300Z,2.95
2022-11-28T11:54:58.552Z,2.65
2022-11-28T11:57:38.444Z,2.63
2022-11-28T12:00:19.418Z,2.60
2022-11-28T12:02:56.702Z,7.35
2022-11-28T12:05:46.632Z,6.10
2022-11-28T12:08:55.910Z,4.20
2022-11-28T12:11:34.453Z,3.42
2022-11-28T12:14:39.016Z,3.95
2022-11-28T12:17:46.862Z,3.15
2022-11-28T12:20:20.976Z,2.28
2022-11-28T12:23:17.025Z,2.33
2022-11-28T12:26:03.566Z,2.10
2022-11-28T12:28:47.687Z,2.88
2022-11-28T12:31:37.035Z,2.33
2022-11-28T12:34:30.677Z,2.50
2022-11-28T12:37:14.185Z,2.40
2022-11-28T12:39:51.761Z,3.30
2022-11-28T12:42:44.724Z,3.17
2022-11-28T12:45:47.908Z,2.87
2022-11-28T12:48:51.660Z,2.40
2022-11-28T12:51:33.463Z,2.65
2022-11-28T12:54:37.623Z,3.08
2022-11-28T13:00:06.694Z,3.20
2022-11-28T13:02:50.911Z,3.40
2022-11-28T13:05:42.893Z,3.20
2022-11-28T13:08:46.510Z,2.50
2022-11-28T13:11:27.169Z,2.38
2022-11-28T13:14:10.112Z,1.83
2022-11-28T13:16:50.360Z,1.60
2022-11-28T13:19:20.607Z,1.75
2022-11-28T13:22:00.226Z,1.15
2022-11-28T13:25:09.231Z,1.13
2022-11-28T13:28:02.942Z,1.08
2022-11-28T13:30:41.127Z,1.20
2022-11-28T13:33:19.436Z,1.30
2022-11-28T13:35:48.122Z,1.15
2022-11-28T13:38:36.293Z,1.15
2022-11-28T13:41:43.083Z,1.63
2022-11-28T13:44:23.063Z,1.73
2022-11-28T13:46:51.511Z,1.10
2022-11-28T13:49:29.956Z,1.27
2022-11-28T13:52:19.162Z,1.27
2022-11-28T13:54:53.247Z,1.40
2022-11-28T13:57:38.976Z,1.50
2022-11-28T14:00:24.139Z,1.00
2022-11-28T14:03:00.427Z,2.13
2022-11-28T14:05:35.180Z,1.83
2022-11-28T14:08:05.123Z,1.75
2022-11-28T14:10:58.916Z,2.17
2022-11-28T14:13:32.730Z,4.75
2022-11-28T14:16:25.339Z,3.35
2022-11-28T14:19:13.119Z,5.07
2022-11-28T14:21:49.635Z,8.93
2022-11-28T14:24:32.607Z,6.72
2022-11-28T14:27:03.144Z,8.75
2022-11-28T14:29:40.246Z,4.57
2022-11-28T14:32:30.228Z,6.57
2022-11-28T14:35:00.616Z,9.55
2022-11-28T14:37:29.048Z,13.23
2022-11-28T14:39:58.655Z,10.93
2022-11-28T14:42:59.052Z,6.50
2022-11-28T14:45:41.594Z,5.22
2022-11-28T14:48:24.572Z,5.68
2022-11-28T14:53:38.340Z,3.97
2022-11-28T14:56:29.341Z,3.50
2022-11-28T14:59:01.458Z,2.28
2022-11-28T15:01:43.965Z,2.97
2022-11-28T15:04:39.503Z,4.82
2022-11-28T15:07:37.136Z,4.00
2022-11-28T15:10:23.132Z,2.53
2022-11-28T15:13:28.725Z,2.92
2022-11-28T15:15:56.231Z,2.90
2022-11-28T15:18:26.097Z,2.42
2022-11-28T15:21:01.560Z,2.33
2022-11-28T15:23:35.887Z,1.90
2022-11-28T15:26:03.841Z,2.95
2022-11-28T15:28:34.319Z,2.95
2022-11-28T15:31:06.920Z,4.03
2022-11-28T15:33:34.516Z,3.53
2022-11-28T15:36:12.506Z,2.90
2022-11-28T15:38:43.339Z,2.10
2022-11-28T15:41:11.388Z,2.50
2022-11-28T15:43:42.733Z,2.83
2022-11-28T15:46:34.689Z,3.05
2022-11-28T15:49:02.860Z,3.10
2022-11-28T15:51:36.599Z,2.85
2022-11-28T15:54:27.774Z,2.88
2022-11-28T15:56:58.960Z,2.85
2022-11-28T15:59:28.253Z,2.50
2022-11-28T16:02:00.311Z,2.30
2022-11-28T16:04:29.126Z,2.42
2022-11-28T16:06:59.391Z,2.85
2022-11-28T16:09:35.908Z,3.03
2022-11-28T16:12:05.705Z,2.95
2022-11-28T16:14:36.586Z,2.72
2022-11-28T16:17:10.698Z,3.25
2022-11-28T16:19:38.926Z,3.25
2022-11-28T16:22:15.552Z,3.35
2022-11-28T16:24:52.603Z,3.63
2022-11-28T16:27:29.425Z,3.83
2022-11-28T16:29:57.002Z,2.90
2022-11-28T16:32:39.837Z,2.88
2022-11-28T16:35:12.715Z,3.03
2022-11-28T16:37:40.911Z,2.58
2022-11-28T16:40:17.362Z,2.05
2022-11-28T16:42:53.683Z,3.40
2022-11-28T16:45:30.930Z,4.68
2022-11-28T16:48:08.940Z,4.82
2022-11-28T16:50:37.655Z,5.82
2022-11-28T16:53:05.906Z,6.03
2022-11-28T16:55:34.098Z,6.68
2022-11-28T16:58:16.604Z,6.53
2022-11-28T17:00:48.586Z,6.47
2022-11-28T17:03:46.725Z,5.78
2022-11-28T17:06:24.244Z,7.72
2022-11-28T17:08:52.073Z,6.07
2022-11-28T17:11:23.610Z,7.40
2022-11-28T17:13:51.826Z,6.75
2022-11-28T17:16:25.069Z,5.72
2022-11-28T17:18:52.734Z,4.28
2022-11-28T17:21:35.135Z,5.60
2022-11-28T17:24:02.771Z,4.00
2022-11-28T17:26:30.207Z,3.28
2022-11-28T17:28:59.261Z,3.80
2022-11-28T17:31:26.536Z,2.60
2022-11-28T17:33:53.916Z,3.22
2022-11-28T17:36:22.732Z,3.28
2022-11-28T17:38:50.095Z,3.22
2022-11-28T17:41:17.572Z,2.97
2022-11-28T17:43:45.443Z,2.88
2022-11-28T17:46:12.908Z,3.45
2022-11-28T17:48:40.885Z,4.50
2022-11-28T17:51:11.174Z,4.95
2022-11-28T17:53:38.808Z,5.45
2022-11-28T17:56:06.756Z,4.95
2022-11-28T17:58:37.758Z,4.30
2022-11-28T18:01:11.735Z,3.60
2022-11-28T18:03:40.604Z,3.55
2022-11-28T18:06:15.706Z,2.88
2022-11-28T18:08:44.887Z,3.28
2022-11-28T18:11:13.994Z,2.58
2022-11-28T18:13:43.805Z,2.45
2022-11-28T18:16:14.355Z,1.75
2022-11-28T18:18:41.788Z,2.13
2022-11-28T18:21:11.099Z,1.88
2022-11-28T18:23:42.666Z,1.42
2022-11-28T18:26:14.359Z,1.65
2022-11-28T18:28:42.039Z,1.63
2022-11-28T18:31:16.598Z,1.60
2022-11-28T18:33:44.013Z,2.17
2022-11-28T18:36:13.657Z,1.70
2022-11-28T18:38:42.037Z,1.60
2022-11-28T18:41:09.796Z,2.08
2022-11-28T18:43:37.650Z,3.10
2022-11-28T18:46:11.434Z,3.63
2022-11-28T18:48:40.942Z,3.00
2022-11-28T18:51:12.041Z,4.15
2022-11-28T18:53:40.221Z,3.92
2022-11-28T18:56:08.287Z,5.85
2022-11-28T18:58:42.213Z,6.10
2022-11-28T19:01:25.281Z,6.05
2022-11-28T19:03:56.687Z,3.40
2022-11-28T19:06:24.770Z,3.58
2022-11-28T19:08:57.979Z,2.63
2022-11-28T19:11:26.470Z,2.08
2022-11-28T19:13:53.921Z,4.95
2022-11-28T19:16:25.201Z,5.38
2022-11-28T19:19:00.839Z,4.10
2022-11-28T19:21:33.113Z,3.53
2022-11-28T19:24:02.615Z,2.90
2022-11-28T19:26:34.155Z,4.93
2022-11-28T19:29:03.941Z,4.75
2022-11-28T19:31:33.886Z,3.80
2022-11-28T19:34:04.548Z,2.97
2022-11-28T19:36:35.447Z,3.22
2022-11-28T19:39:04.160Z,3.75
2022-11-28T19:41:32.625Z,4.80
2022-11-28T19:44:00.369Z,5.72
2022-11-28T19:46:35.069Z,5.75
2022-11-28T19:49:14.571Z,6.07
2022-11-28T19:51:41.839Z,8.52
2022-11-28T19:54:09.553Z,12.25
2022-11-28T19:56:37.307Z,13.95
2022-11-28T19:59:04.631Z,12.48
2022-11-28T20:01:31.938Z,14.50
2022-11-28T20:03:59.904Z,13.98
2022-11-28T20:06:30.318Z,15.07
2022-11-28T20:09:05.364Z,25.02
2022-11-28T20:11:37.769Z,22.05
2022-11-28T20:14:08.970Z,28.50
2022-11-28T20:16:37.566Z,27.45
2022-11-28T20:19:06.628Z,21.90
2022-11-28T20:21:34.871Z,20.02
2022-11-28T20:24:05.996Z,18.23
2022-11-28T20:26:38.616Z,18.45
2022-11-28T20:29:07.047Z,21.25
2022-11-28T20:31:42.500Z,20.15
2022-11-28T20:34:10.305Z,19.23
2022-11-28T20:36:43.835Z,16.83
2022-11-28T20:39:12.818Z,14.68
2022-11-28T20:41:40.787Z,13.77
2022-11-28T20:44:08.653Z,14.60
2022-11-28T20:46:36.179Z,14.98
2022-11-28T20:49:06.836Z,13.15
2022-11-28T20:51:36.492Z,12.10
2022-11-28T20:54:05.617Z,14.23
2022-11-28T20:56:57.956Z,13.63
2022-11-28T20:59:24.492Z,11.23
2022-11-28T21:01:54.074Z,10.88
2022-11-28T21:04:21.571Z,10.52
2022-11-28T21:06:49.727Z,9.35
2022-11-28T21:09:20.573Z,9.50
2022-11-28T21:11:58.498Z,9.32
2022-11-28T21:14:27.342Z,8.77
2022-11-28T21:16:55.858Z,8.45
2022-11-28T21:19:26.223Z,8.85
2022-11-28T21:21:54.999Z,11.27
2022-11-28T21:24:29.319Z,10.57
2022-11-28T21:26:57.055Z,10.05
2022-11-28T21:29:25.204Z,10.90
2022-11-28T21:31:55.913Z,8.23
2022-11-28T21:34:24.581Z,7.85
2022-11-28T21:36:52.243Z,6.75
2022-11-28T21:39:20.802Z,8.00
2022-11-28T21:41:53.478Z,7.95
2022-11-28T21:44:22.435Z,7.70
2022-11-28T21:46:49.936Z,8.80
2022-11-28T21:49:17.948Z,7.47
2022-11-28T21:51:47.372Z,7.65
2022-11-28T21:54:15.375Z,6.78
2022-11-28T21:56:45.122Z,6.28
2022-11-28T21:59:12.836Z,6.05
2022-11-28T22:01:41.914Z,6.10
2022-11-28T22:04:11.103Z,6.70
2022-11-28T22:06:39.409Z,6.00
2022-11-28T22:09:09.435Z,6.60
2022-11-28T22:11:38.533Z,7.35
2022-11-28T22:14:06.370Z,7.90
2022-11-28T22:16:37.588Z,8.20
2022-11-28T22:19:06.384Z,10.35
2022-11-28T22:21:53.415Z,16.77
2022-11-28T22:24:22.256Z,12.75
2022-11-28T22:26:49.865Z,13.82
2022-11-28T22:29:18.516Z,13.68
2022-11-28T22:31:46.076Z,14.25
2022-11-28T22:34:13.706Z,15.02
2022-11-28T22:36:41.157Z,15.55
2022-11-28T22:39:11.594Z,15.70
2022-11-28T22:41:39.185Z,14.05
2022-11-28T22:44:06.523Z,13.40
2022-11-28T22:46:34.045Z,11.63
2022-11-28T22:49:02.299Z,10.50
2022-11-28T22:51:30.974Z,11.05
2022-11-28T22:54:01.013Z,10.50
2022-11-28T22:56:31.147Z,8.95
2022-11-28T22:59:00.061Z,8.82
2022-11-28T23:01:31.068Z,8.48
2022-11-28T23:04:03.786Z,8.65
2022-11-28T23:06:34.876Z,9.05
2022-11-28T23:09:06.632Z,9.27
2022-11-28T23:11:37.540Z,7.65
2022-11-28T23:14:05.424Z,8.60
2022-11-28T23:16:36.116Z,9.60
2022-11-28T23:19:10.375Z,19.20
2022-11-28T23:21:40.334Z,24.05
2022-11-28T23:24:12.679Z,23.58
2022-11-28T23:26:40.176Z,20.92
2022-11-28T23:29:07.878Z,17.40
2022-11-28T23:31:38.236Z,13.82
2022-11-28T23:34:05.584Z,11.82
2022-11-28T23:36:41.878Z,10.30
2022-11-28T23:39:18.711Z,9.20
2022-11-28T23:41:46.835Z,8.55
2022-11-28T23:44:15.409Z,10.18
2022-11-28T23:46:43.436Z,11.23
2022-11-28T23:49:11.662Z,10.60
2022-11-28T23:51:40.854Z,9.57
2022-11-28T23:54:09.849Z,8.20
2022-11-28T23:56:39.783Z,8.43
2022-11-28T23:59:09.033Z,8.13
